createdAt,value
2022-11-30T00:00:50.389Z,25.17
2022-11-30T00:03:17.019Z,26.23
2022-11-30T00:05:43.506Z,26.10
2022-11-30T00:08:09.931Z,26.87
2022-11-30T00:10:38.773Z,25.20
2022-11-30T00:13:05.208Z,25.00
2022-11-30T00:15:32.112Z,25.60
2022-11-30T00:17:59.003Z,25.17
2022-11-30T00:20:25.803Z,26.30
2022-11-30T00:22:52.220Z,25.73
2022-11-30T00:25:18.774Z,26.87
2022-11-30T00:27:45.175Z,26.40
2022-11-30T00:30:12.303Z,25.67
2022-11-30T00:32:38.687Z,27.53
2022-11-30T00:35:05.445Z,26.27
2022-11-30T00:37:31.840Z,28.10
2022-11-30T00:39:58.260Z,26.97
2022-11-30T00:42:24.637Z,28.27
2022-11-30T00:44:51.052Z,25.03
2022-11-30T00:47:17.592Z,26.43
2022-11-30T00:49:44.300Z,27.00
2022-11-30T00:52:10.694Z,25.60
2022-11-30T00:54:37.105Z,26.60
2022-11-30T00:57:03.503Z,26.17
2022-11-30T00:59:29.935Z,26.17
2022-11-30T01:01:56.539Z,25.83
2022-11-30T01:04:23.009Z,26.33
2022-11-30T01:06:49.537Z,27.67
2022-11-30T01:09:16.016Z,26.77
2022-11-30T01:11:42.488Z,25.30
2022-11-30T01:14:08.955Z,26.13
2022-11-30T01:16:35.335Z,27.53
2022-11-30T01:19:01.891Z,28.80
2022-11-30T01:21:29.224Z,27.30
2022-11-30T01:23:56.191Z,26.73
2022-11-30T01:26:23.336Z,27.90
2022-11-30T01:28:51.918Z,25.67
2022-11-30T01:31:18.914Z,26.43
2022-11-30T01:33:52.277Z,28.30
2022-11-30T01:36:21.428Z,28.90
2022-11-30T01:38:50.650Z,27.00
2022-11-30T01:41:23.327Z,27.03
2022-11-30T01:43:55.122Z,28.20
2022-11-30T01:46:24.544Z,28.40
2022-11-30T01:49:11.267Z,28.20
2022-11-30T01:51:44.060Z,29.67
2022-11-30T01:54:12.550Z,28.47
2022-11-30T01:56:42.500Z,28.50
2022-11-30T01:59:09.181Z,28.70
2022-11-30T02:01:35.697Z,27.87
2022-11-30T02:04:13.959Z,29.33
2022-11-30T02:06:40.462Z,28.23
2022-11-30T02:09:06.881Z,29.33
2022-11-30T02:11:33.675Z,29.00
2022-11-30T02:14:19.091Z,29.20
2022-11-30T02:17:11.973Z,31.13
2022-11-30T02:20:17.008Z,29.57
2022-11-30T02:23:07.974Z,29.17
2022-11-30T02:25:53.351Z,30.80
2022-11-30T02:28:41.267Z,31.67
2022-11-30T02:31:12.475Z,31.23
2022-11-30T02:33:39.161Z,31.17
2022-11-30T02:36:06.709Z,31.83
2022-11-30T02:38:33.424Z,32.00
2022-11-30T02:40:59.912Z,31.23
2022-11-30T02:43:28.400Z,32.63
2022-11-30T02:46:25.871Z,31.57
2022-11-30T02:48:52.247Z,32.90
2022-11-30T02:51:20.398Z,29.83
2022-11-30T02:53:47.488Z,31.83
2022-11-30T02:56:13.971Z,30.77
2022-11-30T02:58:40.901Z,32.03
2022-11-30T03:01:07.419Z,31.33
2022-11-30T03:03:33.855Z,32.20
2022-11-30T03:06:00.391Z,31.00
2022-11-30T03:08:26.856Z,31.33
2022-11-30T03:10:53.315Z,31.43
2022-11-30T03:13:19.726Z,31.20
2022-11-30T03:15:46.200Z,29.53
2022-11-30T03:18:14.011Z,32.03
2022-11-30T03:20:42.394Z,29.57
2022-11-30T03:23:08.986Z,29.70
2022-11-30T03:25:35.523Z,30.83
2022-11-30T03:28:02.577Z,28.57
2022-11-30T03:30:29.067Z,28.93
2022-11-30T03:32:55.523Z,30.47
2022-11-30T03:35:22.092Z,29.40
2022-11-30T03:37:48.648Z,31.50
2022-11-30T03:40:15.199Z,30.20
2022-11-30T03:42:41.630Z,30.00
2022-11-30T03:45:08.231Z,31.73
2022-11-30T03:47:34.663Z,32.17
2022-11-30T03:50:01.161Z,31.23
2022-11-30T03:52:27.843Z,30.03
2022-11-30T03:54:54.262Z,32.00
2022-11-30T03:57:20.666Z,32.10
2022-11-30T03:59:47.105Z,33.77
2022-11-30T04:02:13.616Z,34.43
2022-11-30T04:04:40.250Z,32.97
2022-11-30T04:07:06.641Z,33.00
2022-11-30T04:09:33.046Z,33.07
2022-11-30T04:11:59.607Z,33.60
2022-11-30T04:14:25.985Z,35.30
2022-11-30T04:16:52.376Z,34.00
2022-11-30T04:19:18.809Z,35.27
2022-11-30T04:21:45.259Z,34.67
2022-11-30T04:24:11.672Z,37.57
2022-11-30T04:26:38.327Z,34.73
2022-11-30T04:29:05.233Z,33.47
2022-11-30T04:31:31.732Z,36.80
2022-11-30T04:33:58.153Z,36.97
2022-11-30T04:36:24.913Z,35.60
2022-11-30T04:38:51.312Z,35.60
2022-11-30T04:41:17.890Z,35.07
2022-11-30T04:43:44.303Z,33.80
2022-11-30T04:46:10.824Z,32.47
2022-11-30T04:48:37.377Z,33.70
2022-11-30T04:51:06.038Z,33.60
2022-11-30T04:53:33.510Z,33.30
2022-11-30T04:56:04.830Z,33.63
2022-11-30T04:58:31.241Z,33.50
2022-11-30T05:00:58.027Z,33.33
2022-11-30T05:03:24.543Z,32.20
2022-11-30T05:05:50.963Z,32.70
2022-11-30T05:08:17.355Z,32.73
2022-11-30T05:10:45.044Z,31.47
2022-11-30T05:13:14.122Z,33.33
2022-11-30T05:15:40.524Z,33.47
2022-11-30T05:18:06.913Z,31.83
2022-11-30T05:20:33.487Z,29.40
2022-11-30T05:22:59.888Z,29.17
2022-11-30T05:25:26.329Z,27.67
2022-11-30T05:27:52.804Z,29.30
2022-11-30T05:30:19.343Z,29.77
2022-11-30T05:32:45.749Z,28.53
2022-11-30T05:35:12.111Z,28.27
2022-11-30T05:37:38.510Z,27.93
2022-11-30T05:40:05.650Z,29.83
2022-11-30T05:42:32.085Z,29.80
2022-11-30T05:44:58.474Z,29.97
2022-11-30T05:47:24.891Z,28.93
2022-11-30T05:49:51.333Z,28.73
2022-11-30T05:52:17.767Z,29.07
2022-11-30T05:54:44.368Z,29.30
2022-11-30T05:57:10.901Z,29.53
2022-11-30T05:59:37.312Z,28.53
2022-11-30T06:02:03.765Z,27.33
2022-11-30T06:04:30.382Z,30.40
2022-11-30T06:06:56.842Z,29.90
2022-11-30T06:09:23.668Z,27.83
2022-11-30T06:11:50.641Z,28.37
2022-11-30T06:14:17.229Z,29.23
2022-11-30T06:16:43.666Z,28.43
2022-11-30T06:19:10.070Z,28.83
2022-11-30T06:21:36.510Z,27.67
2022-11-30T06:24:03.017Z,28.03
2022-11-30T06:26:29.450Z,27.00
2022-11-30T06:28:55.881Z,25.83
2022-11-30T06:31:22.407Z,27.13
2022-11-30T06:33:48.879Z,27.17
2022-11-30T06:36:21.052Z,26.20
2022-11-30T06:38:47.567Z,26.13
2022-11-30T06:41:14.089Z,28.50
2022-11-30T06:43:40.760Z,27.47
2022-11-30T06:46:07.734Z,26.07
2022-11-30T06:48:35.477Z,27.13
2022-11-30T06:51:05.438Z,26.80
2022-11-30T06:53:32.040Z,26.10
2022-11-30T06:55:58.505Z,27.63
2022-11-30T06:58:25.113Z,26.97
2022-11-30T07:00:51.586Z,26.30
2022-11-30T07:03:18.082Z,29.27
2022-11-30T07:05:45.977Z,26.77
2022-11-30T07:08:14.078Z,27.07
2022-11-30T07:10:45.192Z,26.83
2022-11-30T07:13:12.660Z,26.70
2022-11-30T07:15:39.933Z,27.43
2022-11-30T07:18:06.513Z,28.20
2022-11-30T07:20:33.976Z,29.53
2022-11-30T07:23:23.336Z,30.23
2022-11-30T07:26:09.462Z,30.10
2022-11-30T07:28:38.556Z,28.67
2022-11-30T07:31:20.660Z,31.80
2022-11-30T07:33:48.046Z,29.17
2022-11-30T07:36:15.309Z,31.77
2022-11-30T07:38:41.860Z,31.70
2022-11-30T07:41:08.793Z,30.03
2022-11-30T07:43:35.648Z,29.33
2022-11-30T07:46:02.790Z,31.17
2022-11-30T07:48:29.486Z,31.43
2022-11-30T07:51:02.131Z,30.57
2022-11-30T07:53:28.650Z,30.83
2022-11-30T07:56:01.555Z,32.13
2022-11-30T07:58:28.711Z,32.37
2022-11-30T08:00:55.318Z,34.07
2022-11-30T08:03:21.965Z,32.57
2022-11-30T08:05:48.411Z,33.17
2022-11-30T08:08:14.825Z,34.33
2022-11-30T08:10:41.453Z,32.97
2022-11-30T08:13:08.055Z,32.43
2022-11-30T08:15:34.848Z,34.27
2022-11-30T08:18:05.682Z,33.87
2022-11-30T08:20:32.298Z,33.53
2022-11-30T08:22:58.847Z,36.37
2022-11-30T08:25:25.824Z,36.40
2022-11-30T08:27:52.424Z,38.47
2022-11-30T08:30:19.045Z,36.43
2022-11-30T08:32:45.800Z,35.13
2022-11-30T08:35:12.584Z,35.27
2022-11-30T08:37:39.149Z,37.27
2022-11-30T08:40:06.260Z,37.23
2022-11-30T08:42:32.719Z,37.67
2022-11-30T08:44:59.560Z,39.43
2022-11-30T08:47:26.391Z,37.53
2022-11-30T08:49:52.892Z,38.40
2022-11-30T08:52:19.451Z,38.47
2022-11-30T08:54:47.657Z,39.37
2022-11-30T08:57:15.702Z,38.57
2022-11-30T08:59:42.142Z,37.57
2022-11-30T09:02:10.820Z,38.17
2022-11-30T09:04:37.866Z,38.87
2022-11-30T09:07:04.447Z,39.40
2022-11-30T09:09:31.044Z,38.83
2022-11-30T09:11:57.728Z,37.20
2022-11-30T09:14:24.165Z,38.30
2022-11-30T09:16:50.612Z,37.27
2022-11-30T09:19:17.052Z,37.23
2022-11-30T09:21:49.784Z,37.10
2022-11-30T09:24:17.925Z,35.53
2022-11-30T09:26:44.414Z,35.20
2022-11-30T09:29:10.802Z,35.50
2022-11-30T09:31:37.372Z,36.13
2022-11-30T09:34:03.939Z,35.23
2022-11-30T09:36:30.959Z,36.60
2022-11-30T09:38:57.519Z,36.33
2022-11-30T09:41:45.481Z,35.90
2022-11-30T09:44:33.760Z,35.03
2022-11-30T09:47:27.562Z,33.07
2022-11-30T09:49:56.659Z,34.87
2022-11-30T09:52:37.587Z,33.93
2022-11-30T09:55:08.325Z,33.27
2022-11-30T09:57:45.301Z,34.27
2022-11-30T10:00:21.670Z,34.47
2022-11-30T10:02:53.303Z,34.33
2022-11-30T10:05:22.451Z,35.43
2022-11-30T10:08:01.244Z,34.33
2022-11-30T10:10:43.305Z,32.33
2022-11-30T10:13:23.144Z,33.03
2022-11-30T10:16:14.083Z,34.90
2022-11-30T10:19:05.719Z,31.70
2022-11-30T10:21:47.484Z,34.63
2022-11-30T10:24:34.253Z,31.73
2022-11-30T10:27:08.709Z,33.90
2022-11-30T10:29:37.675Z,32.67
2022-11-30T10:32:22.871Z,32.53
2022-11-30T10:34:54.105Z,33.57
2022-11-30T10:37:23.478Z,31.63
2022-11-30T10:40:00.402Z,31.37
2022-11-30T10:42:30.710Z,31.30
2022-11-30T10:45:04.084Z,30.97
2022-11-30T10:47:36.934Z,31.03
2022-11-30T10:50:05.186Z,30.90
2022-11-30T10:52:48.852Z,32.40
2022-11-30T10:55:19.493Z,31.53
2022-11-30T10:57:47.232Z,30.27
2022-11-30T11:00:15.301Z,30.30
2022-11-30T11:02:43.433Z,32.40
2022-11-30T11:05:16.173Z,32.07
2022-11-30T11:07:48.072Z,33.47
2022-11-30T11:10:40.625Z,31.60
2022-11-30T11:13:15.834Z,30.17
2022-11-30T11:15:56.323Z,30.73
2022-11-30T11:18:26.132Z,29.67
2022-11-30T11:21:19.294Z,31.53
2022-11-30T11:23:46.430Z,33.00
2022-11-30T11:26:18.151Z,32.13
2022-11-30T11:28:47.144Z,31.43
2022-11-30T11:31:36.725Z,31.03
2022-11-30T11:34:05.535Z,32.67
2022-11-30T11:36:34.344Z,35.33
2022-11-30T11:39:01.475Z,32.73
2022-11-30T11:41:33.980Z,34.10
2022-11-30T11:44:09.715Z,34.50
2022-11-30T11:46:38.799Z,31.23
2022-11-30T11:49:07.683Z,33.70
2022-11-30T11:51:37.114Z,32.90
2022-11-30T11:54:12.836Z,32.93
2022-11-30T11:56:39.523Z,33.67
2022-11-30T11:59:32.307Z,34.83
2022-11-30T12:02:03.211Z,33.77
2022-11-30T12:04:48.336Z,33.30
2022-11-30T12:07:22.970Z,33.17
2022-11-30T12:13:22.331Z,32.60
2022-11-30T12:16:10.599Z,33.40
2022-11-30T12:18:55.026Z,32.27
2022-11-30T12:21:30.438Z,30.10
2022-11-30T12:24:05.769Z,31.33
2022-11-30T12:26:39.900Z,30.60
2022-11-30T12:29:06.437Z,32.80
2022-11-30T12:31:58.642Z,31.63
2022-11-30T12:35:14.594Z,31.13
2022-11-30T12:37:47.899Z,31.37
2022-11-30T12:40:40.901Z,31.43
2022-11-30T12:43:15.679Z,33.90
2022-11-30T12:45:46.625Z,33.90
2022-11-30T12:48:56.562Z,33.83
2022-11-30T12:51:29.382Z,32.87
2022-11-30T12:54:22.791Z,33.60
2022-11-30T12:56:54.799Z,35.53
2022-11-30T12:59:28.011Z,33.30
2022-11-30T13:02:11.803Z,34.27
2022-11-30T13:04:40.992Z,32.13
2022-11-30T13:07:34.902Z,32.80
2022-11-30T13:10:22.722Z,32.17
2022-11-30T13:12:50.844Z,32.00
2022-11-30T13:15:22.971Z,31.60
2022-11-30T13:17:50.150Z,30.40
2022-11-30T13:20:19.593Z,31.10
2022-11-30T13:22:46.100Z,31.97
2022-11-30T13:25:18.784Z,30.47
2022-11-30T13:27:53.459Z,30.97
2022-11-30T13:30:44.363Z,32.57
2022-11-30T13:33:37.796Z,30.87
2022-11-30T13:36:22.843Z,30.10
2022-11-30T13:39:08.152Z,29.73
2022-11-30T13:41:35.092Z,30.60
2022-11-30T13:44:01.836Z,30.27
2022-11-30T13:46:28.700Z,30.03
2022-11-30T13:49:22.212Z,27.80
2022-11-30T13:52:07.044Z,29.43
2022-11-30T13:54:38.713Z,29.93
2022-11-30T13:57:27.156Z,29.57
2022-11-30T13:59:55.054Z,28.53
2022-11-30T14:02:54.064Z,29.30
2022-11-30T14:05:23.479Z,29.73
2022-11-30T14:07:49.894Z,28.60
2022-11-30T14:10:36.022Z,27.53
2022-11-30T14:13:29.037Z,27.33
2022-11-30T14:15:59.752Z,29.90
2022-11-30T14:18:41.201Z,28.77
2022-11-30T14:21:15.814Z,29.13
2022-11-30T14:24:01.042Z,27.97
2022-11-30T14:26:36.461Z,28.20
2022-11-30T14:29:09.050Z,26.77
2022-11-30T14:31:49.818Z,26.93
2022-11-30T14:34:22.314Z,27.17
2022-11-30T14:36:52.018Z,26.83
2022-11-30T14:39:26.415Z,27.97
2022-11-30T14:41:53.075Z,28.20
2022-11-30T14:44:19.849Z,27.33
2022-11-30T14:46:46.343Z,28.37
2022-11-30T14:49:21.266Z,27.40
2022-11-30T14:51:53.428Z,28.43
2022-11-30T14:54:32.237Z,27.57
2022-11-30T14:57:03.311Z,28.17
2022-11-30T14:59:37.838Z,30.97
2022-11-30T15:02:06.410Z,28.63
2022-11-30T15:04:36.030Z,28.90
2022-11-30T15:07:02.641Z,28.87
2022-11-30T15:09:31.606Z,28.60
2022-11-30T15:11:58.541Z,29.47
2022-11-30T15:14:24.993Z,27.70
2022-11-30T15:16:53.914Z,29.80
2022-11-30T15:19:29.557Z,29.93
2022-11-30T15:21:57.127Z,29.10
2022-11-30T15:24:24.237Z,29.87
2022-11-30T15:27:03.081Z,30.13
2022-11-30T15:29:37.092Z,29.50
2022-11-30T15:32:16.807Z,29.23
2022-11-30T15:34:56.039Z,29.70
2022-11-30T15:37:30.853Z,32.00
2022-11-30T15:39:58.695Z,30.50
2022-11-30T15:42:39.795Z,30.17
2022-11-30T15:45:22.911Z,28.50
2022-11-30T15:47:50.160Z,30.80
2022-11-30T15:50:31.660Z,30.90
2022-11-30T15:53:03.708Z,31.47
2022-11-30T15:55:47.996Z,29.37
2022-11-30T15:58:24.540Z,27.43
2022-11-30T16:01:12.362Z,28.90
2022-11-30T16:04:02.052Z,28.67
2022-11-30T16:06:29.731Z,29.47
2022-11-30T16:08:57.252Z,29.03
2022-11-30T16:11:23.813Z,30.20
2022-11-30T16:13:50.273Z,28.40
2022-11-30T16:16:20.221Z,28.73
2022-11-30T16:18:47.298Z,29.70
2022-11-30T16:21:17.943Z,30.17
2022-11-30T16:23:44.784Z,29.80
2022-11-30T16:29:05.590Z,29.17
2022-11-30T16:31:32.154Z,30.30
2022-11-30T16:33:58.773Z,29.47
2022-11-30T16:36:25.319Z,30.53
2022-11-30T16:38:52.952Z,30.77
2022-11-30T16:41:24.695Z,30.90
2022-11-30T16:43:52.496Z,30.80
2022-11-30T16:46:21.585Z,28.63
2022-11-30T16:48:48.781Z,30.53
2022-11-30T16:51:17.911Z,30.90
2022-11-30T16:53:45.744Z,32.23
2022-11-30T16:56:13.877Z,30.80
2022-11-30T16:58:40.580Z,32.13
2022-11-30T17:01:13.266Z,32.87
2022-11-30T17:03:40.080Z,31.47
2022-11-30T17:06:08.887Z,32.20
2022-11-30T17:08:35.812Z,31.53
2022-11-30T17:11:02.286Z,31.87
2022-11-30T17:13:28.691Z,33.73
2022-11-30T17:15:55.795Z,32.90
2022-11-30T17:18:22.214Z,32.23
2022-11-30T17:20:48.671Z,32.57
2022-11-30T17:23:15.054Z,32.37
2022-11-30T17:25:41.670Z,33.83
2022-11-30T17:28:08.124Z,31.60
2022-11-30T17:30:34.678Z,33.07
2022-11-30T17:33:01.173Z,33.33
2022-11-30T17:35:27.770Z,32.50
2022-11-30T17:37:54.479Z,34.53
2022-11-30T17:40:20.950Z,31.67
2022-11-30T17:42:47.456Z,31.57
2022-11-30T17:45:14.209Z,33.17
2022-11-30T17:47:40.629Z,32.23
2022-11-30T17:50:07.983Z,31.03
2022-11-30T17:52:34.522Z,32.50
2022-11-30T17:55:01.189Z,30.63
2022-11-30T17:57:27.755Z,28.57
2022-11-30T17:59:54.335Z,30.13
2022-11-30T18:02:21.060Z,29.27
2022-11-30T18:04:47.756Z,30.13
2022-11-30T18:07:15.530Z,31.40
2022-11-30T18:09:43.053Z,31.33
2022-11-30T18:12:10.729Z,30.03
2022-11-30T18:14:37.256Z,28.60
2022-11-30T18:17:03.713Z,27.77
2022-11-30T18:19:30.307Z,29.43
2022-11-30T18:21:56.872Z,28.63
2022-11-30T18:24:25.522Z,31.70
2022-11-30T18:26:52.619Z,28.67
2022-11-30T18:29:19.136Z,28.77
2022-11-30T18:31:48.176Z,29.47
2022-11-30T18:34:14.950Z,29.40
2022-11-30T18:36:41.537Z,28.60
2022-11-30T18:39:08.272Z,28.57
2022-11-30T18:41:34.759Z,29.37
2022-11-30T18:44:01.214Z,28.80
2022-11-30T18:46:28.275Z,28.57
2022-11-30T18:48:55.303Z,28.20
2022-11-30T18:51:25.160Z,29.97
2022-11-30T18:54:02.909Z,31.40
2022-11-30T18:56:31.987Z,32.70
2022-11-30T18:59:01.307Z,31.20
2022-11-30T19:01:28.680Z,30.00
2022-11-30T19:03:58.041Z,30.17
2022-11-30T19:06:28.045Z,31.27
2022-11-30T19:08:54.481Z,30.20
2022-11-30T19:11:20.937Z,30.93
2022-11-30T19:13:47.515Z,30.47
2022-11-30T19:16:16.376Z,30.20
2022-11-30T19:18:45.072Z,30.60
2022-11-30T19:21:13.977Z,31.20
2022-11-30T19:23:40.608Z,31.33
2022-11-30T19:26:08.211Z,32.27
2022-11-30T19:28:35.590Z,30.73
2022-11-30T19:31:07.272Z,32.57
2022-11-30T19:33:35.334Z,31.27
2022-11-30T19:36:03.023Z,34.13
2022-11-30T19:38:29.518Z,34.80
2022-11-30T19:40:57.409Z,36.77
2022-11-30T19:43:24.047Z,36.53
2022-11-30T19:45:50.801Z,38.57
2022-11-30T19:48:17.432Z,39.00
2022-11-30T19:50:43.877Z,37.10
2022-11-30T19:53:10.355Z,36.50
2022-11-30T19:55:40.384Z,36.77
2022-11-30T19:58:06.806Z,36.00
2022-11-30T20:00:33.341Z,34.70
2022-11-30T20:03:00.137Z,34.40
2022-11-30T20:05:26.615Z,32.23
2022-11-30T20:07:53.079Z,34.73
2022-11-30T20:10:19.496Z,32.97
2022-11-30T20:12:45.899Z,34.23
2022-11-30T20:15:12.449Z,34.37
2022-11-30T20:17:38.855Z,32.70
2022-11-30T20:20:06.228Z,31.53
2022-11-30T20:22:33.291Z,32.80
2022-11-30T20:24:59.688Z,33.63
2022-11-30T20:27:26.213Z,34.37
2022-11-30T20:29:52.704Z,34.67
2022-11-30T20:32:19.524Z,33.97
2022-11-30T20:34:46.232Z,32.70
2022-11-30T20:37:13.192Z,33.13
2022-11-30T20:39:45.714Z,32.53
2022-11-30T20:42:12.921Z,32.53
2022-11-30T20:44:39.345Z,33.90
2022-11-30T20:47:05.793Z,35.17
2022-11-30T20:49:32.293Z,34.23
2022-11-30T20:51:58.714Z,33.53
2022-11-30T20:54:25.159Z,35.10
2022-11-30T20:56:51.684Z,34.23
2022-11-30T20:59:23.629Z,33.30
2022-11-30T21:01:50.381Z,33.00
2022-11-30T21:04:16.892Z,32.97
2022-11-30T21:06:45.408Z,32.77
2022-11-30T21:09:13.657Z,32.37
2022-11-30T21:11:40.434Z,32.47
2022-11-30T21:14:07.186Z,31.33
2022-11-30T21:16:34.189Z,31.43
2022-11-30T21:19:01.335Z,30.50
2022-11-30T21:21:32.964Z,30.77
2022-11-30T21:24:00.951Z,31.83
2022-11-30T21:26:30.053Z,32.17
2022-11-30T21:29:00.700Z,31.80
2022-11-30T21:31:27.246Z,32.20
2022-11-30T21:33:54.086Z,32.87
2022-11-30T21:36:21.646Z,33.03
2022-11-30T21:38:48.133Z,31.10
2022-11-30T21:41:14.646Z,28.50
2022-11-30T21:43:41.564Z,29.80
2022-11-30T21:46:17.012Z,29.33
2022-11-30T21:48:45.877Z,29.90
2022-11-30T21:51:14.300Z,28.07
2022-11-30T21:53:42.700Z,28.73
2022-11-30T21:56:12.704Z,27.67
2022-11-30T21:58:40.540Z,27.37
2022-11-30T22:01:07.838Z,27.47
2022-11-30T22:03:34.378Z,28.30
2022-11-30T22:06:02.906Z,28.50
2022-11-30T22:08:29.901Z,26.40
2022-11-30T22:11:01.473Z,25.77
2022-11-30T22:13:29.376Z,28.20
2022-11-30T22:16:04.761Z,27.27
2022-11-30T22:18:31.511Z,28.33
2022-11-30T22:21:10.125Z,27.03
2022-11-30T22:23:38.803Z,28.57
2022-11-30T22:26:11.503Z,29.07
2022-11-30T22:28:38.569Z,29.13
2022-11-30T22:31:06.827Z,32.00
2022-11-30T22:33:34.563Z,34.00
2022-11-30T22:36:01.823Z,33.17
2022-11-30T22:38:29.357Z,32.50
2022-11-30T22:41:03.283Z,32.60
2022-11-30T22:43:29.898Z,33.60
2022-11-30T22:46:05.198Z,34.53
2022-11-30T22:48:31.825Z,33.33
2022-11-30T22:51:05.901Z,34.30
2022-11-30T22:53:36.232Z,32.87
2022-11-30T22:56:08.245Z,32.10
2022-11-30T22:58:34.825Z,33.13
2022-11-30T23:01:16.474Z,31.57
2022-11-30T23:03:44.514Z,33.43
2022-11-30T23:06:12.420Z,33.37
2022-11-30T23:08:39.132Z,32.97
2022-11-30T23:11:09.378Z,33.47
2022-11-30T23:13:36.367Z,35.20
2022-11-30T23:16:04.624Z,35.07
2022-11-30T23:18:37.115Z,36.03
2022-11-30T23:21:06.741Z,37.70
2022-11-30T23:23:33.235Z,36.73
2022-11-30T23:26:14.882Z,37.00
2022-11-30T23:28:42.776Z,36.60
2022-11-30T23:31:34.114Z,36.63
2022-11-30T23:34:02.399Z,37.77
2022-11-30T23:36:28.946Z,36.10
2022-11-30T23:38:58.247Z,36.10
2022-11-30T23:41:26.420Z,38.23
2022-11-30T23:43:53.332Z,36.13
2022-11-30T23:46:19.950Z,34.77
2022-11-30T23:48:47.060Z,34.77
2022-11-30T23:51:13.498Z,32.97
2022-11-30T23:53:40.048Z,35.33
2022-11-30T23:56:09.461Z,33.13
2022-11-30T23:58:35.869Z,34.40
